createdAt,value
2017-06-02T00:00:17.935Z,0
2017-06-02T00:01:17.870Z,0
2017-06-02T00:02:17.687Z,0
2017-06-02T00:03:18.033Z,0
2017-06-02T00:04:17.755Z,0
2017-06-02T00:05:18.095Z,0
2017-06-02T00:06:17.507Z,0
2017-06-02T00:07:18.360Z,0
2017-06-02T00:08:18.184Z,0
2017-06-02T00:09:17.898Z,0
2017-06-02T00:10:18.247Z,0
2017-06-02T00:11:17.965Z,0
2017-06-02T00:12:18.245Z,0
2017-06-02T00:13:18.021Z,0
2017-06-02T00:14:18.358Z,0
2017-06-02T00:15:17.771Z,0
2017-06-02T00:16:18.424Z,0
2017-06-02T00:17:18.353Z,0
2017-06-02T00:18:18.177Z,0
2017-06-02T00:19:17.903Z,0
2017-06-02T00:20:18.243Z,0
2017-06-02T00:21:17.952Z,0
2017-06-02T00:22:18.860Z,0
2017-06-02T00:23:18.638Z,0
2017-06-02T00:24:17.742Z,0
2017-06-02T00:25:18.075Z,0
2017-06-02T00:26:18.740Z,0
2017-06-02T00:27:18.657Z,0
2017-06-02T00:28:18.794Z,0
2017-06-02T00:29:17.886Z,0
2017-06-02T00:30:18.875Z,0
2017-06-02T00:31:18.580Z,0
2017-06-02T00:32:18.914Z,0
2017-06-02T00:33:18.333Z,0
2017-06-02T00:34:18.667Z,0
2017-06-02T00:35:19.011Z,0
2017-06-02T00:36:19.048Z,0
2017-06-02T00:37:18.641Z,0
2017-06-02T00:38:19.111Z,0
2017-06-02T00:39:18.818Z,0
2017-06-02T00:40:19.159Z,0
2017-06-02T00:41:18.881Z,0
2017-06-02T00:42:18.854Z,0
2017-06-02T00:43:18.937Z,0
2017-06-02T00:44:19.273Z,0
2017-06-02T00:45:18.995Z,0
2017-06-02T00:46:19.038Z,0
2017-06-02T00:47:19.309Z,0
2017-06-02T00:48:19.098Z,0
2017-06-02T00:49:19.118Z,0
2017-06-02T00:50:19.464Z,0
2017-06-02T00:51:19.496Z,0
2017-06-02T00:52:19.469Z,0
2017-06-02T00:53:18.939Z,0
2017-06-02T00:54:18.955Z,0
2017-06-02T00:55:19.302Z,0
2017-06-02T00:56:19.025Z,0
2017-06-02T00:57:19.938Z,0
2017-06-02T00:58:19.095Z,0
2017-06-02T00:59:19.738Z,0
2017-06-02T01:00:19.448Z,0
2017-06-02T01:01:18.864Z,0
2017-06-02T01:02:19.457Z,0
2017-06-02T01:03:19.859Z,0
2017-06-02T01:04:19.261Z,0
2017-06-02T01:05:19.916Z,0
2017-06-02T01:06:19.948Z,0
2017-06-02T01:07:20.229Z,0
2017-06-02T01:08:20.007Z,0
2017-06-02T01:09:20.046Z,0
2017-06-02T01:10:19.448Z,0
2017-06-02T01:11:20.117Z,0
2017-06-02T01:12:20.394Z,0
2017-06-02T01:13:20.177Z,0
2017-06-02T01:14:20.215Z,0
2017-06-02T01:15:19.916Z,0
2017-06-02T01:16:19.953Z,0
2017-06-02T01:17:20.166Z,0
2017-06-02T01:18:20.006Z,0
2017-06-02T01:19:20.351Z,0
2017-06-02T01:20:20.068Z,0
2017-06-02T01:21:20.105Z,0
2017-06-02T01:22:20.065Z,0
2017-06-02T01:23:20.158Z,0
2017-06-02T01:24:20.184Z,0
2017-06-02T01:25:20.219Z,0
2017-06-02T01:26:20.249Z,0
2017-06-02T01:27:20.797Z,0
2017-06-02T01:28:20.302Z,0
2017-06-02T01:29:20.343Z,0
2017-06-02T01:30:20.371Z,0
2017-06-02T01:31:20.401Z,0
2017-06-02T01:32:20.118Z,0
2017-06-02T01:33:21.011Z,0
2017-06-02T01:34:20.802Z,0
2017-06-02T01:35:20.522Z,0
2017-06-02T01:36:20.561Z,0
2017-06-02T01:37:20.581Z,0
2017-06-02T01:38:21.126Z,0
2017-06-02T01:39:20.323Z,0
2017-06-02T01:40:20.974Z,0
2017-06-02T01:41:20.701Z,0
2017-06-02T01:42:20.418Z,0
2017-06-02T01:43:20.339Z,0
2017-06-02T01:44:21.108Z,0
2017-06-02T01:45:21.139Z,0
2017-06-02T01:46:20.862Z,0
2017-06-02T01:47:20.262Z,0
2017-06-02T01:48:21.482Z,0
2017-06-02T01:49:20.949Z,0
2017-06-02T01:50:21.293Z,0
2017-06-02T01:51:21.013Z,0
2017-06-02T01:52:20.419Z,0
2017-06-02T01:53:21.007Z,0
2017-06-02T01:54:21.101Z,0
2017-06-02T01:55:21.135Z,0
2017-06-02T01:56:20.534Z,0
2017-06-02T01:57:21.502Z,0
2017-06-02T01:58:21.473Z,0
2017-06-02T01:59:21.566Z,0
2017-06-02T02:00:21.588Z,0
2017-06-02T02:01:21.311Z,0
2017-06-02T02:02:21.027Z,0
2017-06-02T02:03:21.922Z,0
2017-06-02T02:04:21.401Z,0
2017-06-02T02:05:21.129Z,0
2017-06-02T02:06:21.151Z,0
2017-06-02T02:07:21.489Z,0
2017-06-02T02:08:21.726Z,0
2017-06-02T02:09:21.868Z,0
2017-06-02T02:10:21.892Z,0
2017-06-02T02:11:21.603Z,0
2017-06-02T02:12:21.338Z,0
2017-06-02T02:13:21.871Z,0
2017-06-02T02:14:22.016Z,0
2017-06-02T02:15:22.047Z,0
2017-06-02T02:16:21.766Z,0
2017-06-02T02:17:21.789Z,0
2017-06-02T02:18:22.395Z,0
2017-06-02T02:19:22.160Z,0
2017-06-02T02:20:21.880Z,0
2017-06-02T02:21:21.913Z,0
2017-06-02T02:22:22.254Z,0
2017-06-02T02:23:21.858Z,0
2017-06-02T02:24:22.011Z,0
2017-06-02T02:25:21.720Z,0
2017-06-02T02:26:22.069Z,0
2017-06-02T02:27:22.117Z,0
2017-06-02T02:28:22.009Z,0
2017-06-02T02:29:22.155Z,0
2017-06-02T02:30:22.501Z,0
2017-06-02T02:31:21.909Z,0
2017-06-02T02:32:22.251Z,0
2017-06-02T02:33:22.526Z,0
2017-06-02T02:34:22.312Z,0
2017-06-02T02:35:22.336Z,0
2017-06-02T02:36:22.372Z,0
2017-06-02T02:37:22.394Z,0
2017-06-02T02:38:22.983Z,0
2017-06-02T02:39:22.459Z,0
2017-06-02T02:40:22.802Z,0
2017-06-02T02:41:22.514Z,0
2017-06-02T02:42:22.858Z,0
2017-06-02T02:43:22.527Z,0
2017-06-02T02:44:21.979Z,0
2017-06-02T02:45:22.956Z,0
2017-06-02T02:46:22.977Z,0
2017-06-02T02:47:23.019Z,0
2017-06-02T02:48:23.291Z,0
2017-06-02T02:49:23.068Z,0
2017-06-02T02:50:23.101Z,0
2017-06-02T02:51:23.129Z,0
2017-06-02T02:52:23.167Z,0
2017-06-02T02:53:23.428Z,0
2017-06-02T02:54:22.916Z,0
2017-06-02T02:55:23.264Z,0
2017-06-02T02:56:22.974Z,0
2017-06-02T02:57:22.378Z,0
2017-06-02T02:58:23.547Z,0
2017-06-02T02:59:23.060Z,0
2017-06-02T03:00:22.786Z,0
2017-06-02T03:01:23.126Z,0
2017-06-02T03:02:23.467Z,0
2017-06-02T03:03:23.441Z,0
2017-06-02T03:04:22.905Z,0
2017-06-02T03:05:23.249Z,0
2017-06-02T03:06:23.585Z,0
2017-06-02T03:07:23.619Z,0
2017-06-02T03:08:23.892Z,0
2017-06-02T03:09:23.677Z,0
2017-06-02T03:10:23.710Z,0
2017-06-02T03:11:23.742Z,0
2017-06-02T03:12:23.767Z,0
2017-06-02T03:13:24.048Z,0
2017-06-02T03:14:23.521Z,0
2017-06-02T03:15:23.546Z,0
2017-06-02T03:16:23.578Z,0
2017-06-02T03:17:23.611Z,0
2017-06-02T03:18:24.143Z,0
2017-06-02T03:19:23.667Z,0
2017-06-02T03:20:23.723Z,0
2017-06-02T03:21:23.415Z,0
2017-06-02T03:22:24.070Z,0
2017-06-02T03:23:23.987Z,0
2017-06-02T03:24:23.804Z,0
2017-06-02T03:25:23.533Z,0
2017-06-02T03:26:24.198Z,0
2017-06-02T03:27:23.907Z,0
2017-06-02T03:28:24.494Z,0
2017-06-02T03:29:23.960Z,0
2017-06-02T03:30:23.689Z,0
2017-06-02T03:31:24.018Z,0
2017-06-02T03:32:24.060Z,0
2017-06-02T03:33:24.655Z,0
2017-06-02T03:34:24.432Z,0
2017-06-02T03:35:24.458Z,0
2017-06-02T03:36:24.179Z,0
2017-06-02T03:37:24.519Z,0
2017-06-02T03:38:24.488Z,0
2017-06-02T03:39:24.260Z,0
2017-06-02T03:40:24.614Z,0
2017-06-02T03:41:24.323Z,0
2017-06-02T03:42:24.667Z,0
2017-06-02T03:43:24.595Z,0
2017-06-02T03:44:24.728Z,0
2017-06-02T03:45:24.461Z,0
2017-06-02T03:46:24.799Z,0
2017-06-02T03:47:24.506Z,0
2017-06-02T03:48:25.043Z,0
2017-06-02T03:49:24.576Z,0
2017-06-02T03:50:24.602Z,0
2017-06-02T03:51:24.626Z,0
2017-06-02T03:52:24.655Z,0
2017-06-02T03:53:24.688Z,0
2017-06-02T03:54:24.969Z,0
2017-06-02T03:55:24.749Z,0
2017-06-02T03:56:25.099Z,0
2017-06-02T03:57:25.120Z,0
2017-06-02T03:58:25.157Z,0
2017-06-02T03:59:25.069Z,0
2017-06-02T04:00:25.209Z,0
2017-06-02T04:01:24.930Z,0
2017-06-02T04:02:24.953Z,0
2017-06-02T04:03:24.672Z,0
2017-06-02T04:04:25.218Z,0
2017-06-02T04:05:25.050Z,0
2017-06-02T04:06:24.762Z,0
2017-06-02T04:07:25.112Z,0
2017-06-02T04:08:25.147Z,0
2017-06-02T04:09:25.058Z,0
2017-06-02T04:10:25.194Z,0
2017-06-02T04:11:25.547Z,0
2017-06-02T04:12:25.264Z,0
2017-06-02T04:13:25.287Z,0
2017-06-02T04:14:25.260Z,0
2017-06-02T04:15:25.034Z,0
2017-06-02T04:16:25.378Z,0
2017-06-02T04:17:25.723Z,0
2017-06-02T04:18:25.759Z,0
2017-06-02T04:19:25.669Z,0
2017-06-02T04:20:25.806Z,0
2017-06-02T04:21:25.843Z,0
2017-06-02T04:22:25.256Z,0
2017-06-02T04:23:25.581Z,0
2017-06-02T04:24:25.817Z,0
2017-06-02T04:25:25.968Z,0
2017-06-02T04:26:25.999Z,0
2017-06-02T04:27:26.028Z,0
2017-06-02T04:28:26.060Z,0
2017-06-02T04:29:26.282Z,0
2017-06-02T04:30:26.110Z,0
2017-06-02T04:31:26.180Z,0
2017-06-02T04:32:26.176Z,0
2017-06-02T04:33:25.893Z,0
2017-06-02T04:34:26.109Z,0
2017-06-02T04:35:25.637Z,0
2017-06-02T04:36:25.984Z,0
2017-06-02T04:37:25.699Z,0
2017-06-02T04:38:26.044Z,0
2017-06-02T04:39:26.262Z,0
2017-06-02T04:40:26.414Z,0
2017-06-02T04:41:26.442Z,0
2017-06-02T04:42:26.159Z,0
2017-06-02T04:43:26.220Z,0
2017-06-02T04:44:26.785Z,0
2017-06-02T04:45:26.255Z,0
2017-06-02T04:46:26.598Z,0
2017-06-02T04:47:26.315Z,0
2017-06-02T04:48:26.657Z,0
2017-06-02T04:49:25.946Z,0
2017-06-02T04:50:26.405Z,0
2017-06-02T04:51:26.423Z,0
2017-06-02T04:52:26.460Z,5
2017-06-02T04:53:26.173Z,5
2017-06-02T04:54:26.779Z,5
2017-06-02T04:55:26.239Z,5
2017-06-02T04:56:26.898Z,5
2017-06-02T04:57:26.932Z,5
2017-06-02T04:58:26.325Z,5
2017-06-02T04:59:27.182Z,5
2017-06-02T05:00:27.014Z,5
2017-06-02T05:01:26.727Z,5
2017-06-02T05:02:27.085Z,5
2017-06-02T05:03:27.098Z,5
2017-06-02T05:04:27.070Z,5
2017-06-02T05:05:27.158Z,5
2017-06-02T05:06:26.264Z,5
2017-06-02T05:07:26.912Z,5
2017-06-02T05:08:26.945Z,5
2017-06-02T05:09:26.850Z,5
2017-06-02T05:10:27.351Z,5
2017-06-02T05:11:26.712Z,5
2017-06-02T05:12:27.376Z,5
2017-06-02T05:13:26.781Z,5
2017-06-02T05:14:27.317Z,5
2017-06-02T05:15:26.831Z,5
2017-06-02T05:16:27.503Z,5
2017-06-02T05:17:27.517Z,5
2017-06-02T05:18:26.922Z,5
2017-06-02T05:19:27.471Z,5
2017-06-02T05:20:26.995Z,5
2017-06-02T05:21:27.332Z,5
2017-06-02T05:22:27.045Z,5
2017-06-02T05:23:27.698Z,5
2017-06-02T05:24:27.623Z,5
2017-06-02T05:25:27.138Z,5
2017-06-02T05:26:27.173Z,5
2017-06-02T05:27:27.820Z,5
2017-06-02T05:28:27.861Z,5
2017-06-02T05:29:27.458Z,5
2017-06-02T05:30:27.916Z,5
2017-06-02T05:31:27.945Z,5
2017-06-02T05:32:27.661Z,5
2017-06-02T05:33:28.005Z,5
2017-06-02T05:34:27.910Z,5
2017-06-02T05:35:28.052Z,5
2017-06-02T05:36:27.780Z,5
2017-06-02T05:37:27.812Z,5
2017-06-02T05:38:27.838Z,5
2017-06-02T05:39:28.114Z,5
2017-06-02T05:40:28.210Z,5
2017-06-02T05:41:27.933Z,5
2017-06-02T05:42:28.276Z,5
2017-06-02T05:43:27.670Z,5
2017-06-02T05:44:28.531Z,5
2017-06-02T05:45:28.043Z,5
2017-06-02T05:46:28.392Z,5
2017-06-02T05:47:28.109Z,5
2017-06-02T05:48:28.453Z,5
2017-06-02T05:49:28.682Z,5
2017-06-02T05:50:28.197Z,5
2017-06-02T05:51:28.232Z,5
2017-06-02T05:52:27.637Z,5
2017-06-02T05:53:27.970Z,5
2017-06-02T05:54:28.827Z,5
2017-06-02T05:55:28.347Z,5
2017-06-02T05:56:28.703Z,5
2017-06-02T05:57:28.410Z,5
2017-06-02T05:58:28.443Z,5
2017-06-02T05:59:28.726Z,5
2017-06-02T06:00:28.192Z,5
2017-06-02T06:01:28.525Z,5
2017-06-02T06:02:28.561Z,5
2017-06-02T06:03:28.898Z,5
2017-06-02T06:04:28.814Z,5
2017-06-02T06:05:28.964Z,5
2017-06-02T06:06:28.681Z,5
2017-06-02T06:07:28.402Z,5
2017-06-02T06:08:28.739Z,5
2017-06-02T06:09:29.331Z,5
2017-06-02T06:10:28.481Z,5
2017-06-02T06:11:28.516Z,5
2017-06-02T06:12:29.215Z,5
2017-06-02T06:13:29.205Z,5
2017-06-02T06:14:28.482Z,5
2017-06-02T06:15:28.946Z,5
2017-06-02T06:16:29.292Z,5
2017-06-02T06:17:28.693Z,5
2017-06-02T06:18:29.026Z,5
2017-06-02T06:19:28.950Z,5
2017-06-02T06:20:28.791Z,5
2017-06-02T06:21:29.124Z,5
2017-06-02T06:22:29.457Z,5
2017-06-02T06:23:29.494Z,5
2017-06-02T06:24:29.787Z,5
2017-06-02T06:25:29.560Z,5
2017-06-02T06:26:29.588Z,5
2017-06-02T06:27:29.617Z,5
2017-06-02T06:28:29.650Z,5
2017-06-02T06:29:29.363Z,5
2017-06-02T06:30:29.592Z,5
2017-06-02T06:31:29.740Z,5
2017-06-02T06:32:29.762Z,5
2017-06-02T06:33:28.854Z,5
2017-06-02T06:34:29.826Z,10
2017-06-02T06:35:29.800Z,10
2017-06-02T06:36:29.576Z,10
2017-06-02T06:37:29.926Z,10
2017-06-02T06:38:29.643Z,10
2017-06-02T06:39:29.977Z,10
2017-06-02T06:40:29.587Z,10
2017-06-02T06:41:29.730Z,10
2017-06-02T06:42:29.755Z,10
2017-06-02T06:43:30.108Z,10
2017-06-02T06:44:30.136Z,10
2017-06-02T06:45:30.359Z,10
2017-06-02T06:46:30.197Z,10
2017-06-02T06:47:30.220Z,10
2017-06-02T06:48:29.935Z,10
2017-06-02T06:49:29.967Z,10
2017-06-02T06:50:30.200Z,10
2017-06-02T06:51:29.712Z,10
2017-06-02T06:52:29.437Z,10
2017-06-02T06:53:30.406Z,10
2017-06-02T06:54:30.125Z,10
2017-06-02T06:55:30.400Z,10
2017-06-02T06:56:30.177Z,10
2017-06-02T06:57:30.202Z,10
2017-06-02T06:58:30.551Z,10
2017-06-02T06:59:30.271Z,10
2017-06-02T07:00:30.504Z,10
2017-06-02T07:01:30.021Z,10
2017-06-02T07:02:30.050Z,10
2017-06-02T07:03:30.381Z,10
2017-06-02T07:04:30.419Z,10
2017-06-02T07:05:30.964Z,10
2017-06-02T07:06:30.478Z,10
2017-06-02T07:07:30.511Z,10
2017-06-02T07:08:30.541Z,10
2017-06-02T07:09:30.883Z,10
2017-06-02T07:10:31.116Z,10
2017-06-02T07:11:30.950Z,10
2017-06-02T07:12:30.975Z,10
2017-06-02T07:13:30.699Z,10
2017-06-02T07:14:31.035Z,10
2017-06-02T07:15:31.276Z,10
2017-06-02T07:16:31.099Z,10
2017-06-02T07:17:30.806Z,10
2017-06-02T07:18:30.844Z,10
2017-06-02T07:19:30.872Z,10
2017-06-02T07:20:31.101Z,10
2017-06-02T07:21:30.924Z,10
2017-06-02T07:22:30.967Z,10
2017-06-02T07:23:31.307Z,10
2017-06-02T07:24:31.336Z,10
2017-06-02T07:25:30.384Z,10
2017-06-02T07:26:30.776Z,10
2017-06-02T07:27:31.424Z,10
2017-06-02T07:28:30.832Z,10
2017-06-02T07:29:31.484Z,10
2017-06-02T07:30:31.141Z,10
2017-06-02T07:31:31.546Z,10
2017-06-02T07:32:31.582Z,10
2017-06-02T07:33:31.607Z,10
2017-06-02T07:34:31.315Z,10
2017-06-02T07:35:31.596Z,10
2017-06-02T07:36:31.389Z,10
2017-06-02T07:37:31.101Z,10
2017-06-02T07:38:31.132Z,10
2017-06-02T07:39:31.791Z,10
2017-06-02T07:40:31.754Z,10
2017-06-02T07:41:31.542Z,10
2017-06-02T07:42:31.563Z,10
2017-06-02T07:43:31.912Z,10
2017-06-02T07:44:31.632Z,10
2017-06-02T07:45:31.912Z,10
2017-06-02T07:46:31.366Z,10
2017-06-02T07:47:32.022Z,10
2017-06-02T07:48:32.064Z,10
2017-06-02T07:49:31.813Z,10
2017-06-02T07:50:32.010Z,10
2017-06-02T07:51:32.150Z,10
2017-06-02T07:52:31.875Z,10
2017-06-02T07:53:31.899Z,10
2017-06-02T07:54:32.244Z,10
2017-06-02T07:55:32.525Z,10
2017-06-02T07:56:31.985Z,10
2017-06-02T07:57:32.007Z,10
2017-06-02T07:58:32.379Z,10
2017-06-02T07:59:32.075Z,10
2017-06-02T08:00:32.357Z,10
2017-06-02T08:01:32.144Z,10
2017-06-02T08:02:32.482Z,10
2017-06-02T08:03:32.515Z,10
2017-06-02T08:04:32.545Z,10
2017-06-02T08:05:32.491Z,10
2017-06-02T08:06:32.295Z,10
2017-06-02T08:07:32.703Z,15
2017-06-02T08:08:32.351Z,15
2017-06-02T08:09:32.064Z,15
2017-06-02T08:10:31.985Z,15
2017-06-02T08:11:32.754Z,15
2017-06-02T08:12:32.479Z,15
2017-06-02T08:13:32.816Z,15
2017-06-02T08:14:32.853Z,15
2017-06-02T08:15:32.766Z,15
2017-06-02T08:16:32.598Z,15
2017-06-02T08:17:32.936Z,15
2017-06-02T08:18:32.339Z,15
2017-06-02T08:19:32.705Z,15
2017-06-02T08:20:32.961Z,15
2017-06-02T08:21:33.063Z,15
2017-06-02T08:22:33.088Z,15
2017-06-02T08:23:32.488Z,15
2017-06-02T08:24:32.844Z,15
2017-06-02T08:25:33.380Z,15
2017-06-02T08:26:32.883Z,15
2017-06-02T08:27:33.252Z,15
2017-06-02T08:28:32.337Z,15
2017-06-02T08:29:33.305Z,15
2017-06-02T08:30:33.583Z,15
2017-06-02T08:31:33.053Z,15
2017-06-02T08:32:32.777Z,15
2017-06-02T08:33:33.185Z,15
2017-06-02T08:34:33.137Z,15
2017-06-02T08:35:33.425Z,15
2017-06-02T08:36:33.515Z,15
2017-06-02T08:37:33.546Z,15
2017-06-02T08:38:33.564Z,15
2017-06-02T08:39:33.612Z,15
2017-06-02T08:40:33.521Z,15
2017-06-02T08:41:33.354Z,15
2017-06-02T08:42:33.683Z,15
2017-06-02T08:43:33.728Z,15
2017-06-02T08:44:33.753Z,20
2017-06-02T08:45:33.729Z,20
2017-06-02T08:46:33.819Z,20
2017-06-02T08:47:33.539Z,20
2017-06-02T08:48:33.877Z,20
2017-06-02T08:49:33.281Z,20
2017-06-02T08:50:33.878Z,20
2017-06-02T08:51:33.975Z,20
2017-06-02T08:52:34.002Z,20
2017-06-02T08:53:34.032Z,20
2017-06-02T08:54:34.065Z,20
2017-06-02T08:55:34.410Z,20
2017-06-02T08:56:33.815Z,20
2017-06-02T08:57:34.143Z,20
2017-06-02T08:58:33.557Z,20
2017-06-02T08:59:34.214Z,20
2017-06-02T09:00:34.501Z,20
2017-06-02T09:01:34.274Z,20
2017-06-02T09:02:33.987Z,20
2017-06-02T09:03:34.021Z,20
2017-06-02T09:04:34.362Z,20
2017-06-02T09:05:34.646Z,20
2017-06-02T09:06:34.115Z,20
2017-06-02T09:07:33.520Z,20
2017-06-02T09:08:33.867Z,20
2017-06-02T09:09:33.894Z,20
2017-06-02T09:10:34.491Z,20
2017-06-02T09:11:34.296Z,20
2017-06-02T09:12:34.308Z,20
2017-06-02T09:13:33.697Z,20
2017-06-02T09:14:34.045Z,20
2017-06-02T09:15:34.648Z,20
2017-06-02T09:16:34.100Z,20
2017-06-02T09:17:34.449Z,20
2017-06-02T09:18:34.479Z,20
2017-06-02T09:19:34.813Z,20
2017-06-02T09:20:35.099Z,20
2017-06-02T09:21:34.884Z,20
2017-06-02T09:22:34.912Z,20
2017-06-02T09:23:34.638Z,20
2017-06-02T09:24:34.670Z,20
2017-06-02T09:25:35.256Z,20
2017-06-02T09:26:34.725Z,20
2017-06-02T09:27:34.444Z,20
2017-06-02T09:28:35.089Z,20
2017-06-02T09:29:35.130Z,20
2017-06-02T09:30:35.359Z,20
2017-06-02T09:31:35.191Z,20
2017-06-02T09:32:35.228Z,25
2017-06-02T09:33:34.937Z,25
2017-06-02T09:34:34.962Z,25
2017-06-02T09:35:34.943Z,25
2017-06-02T09:36:35.024Z,25
2017-06-02T09:37:34.739Z,25
2017-06-02T09:38:34.782Z,25
2017-06-02T09:39:35.135Z,25
2017-06-02T09:40:35.339Z,25
2017-06-02T09:41:34.864Z,25
2017-06-02T09:42:35.528Z,25
2017-06-02T09:43:35.257Z,25
2017-06-02T09:44:34.954Z,25
2017-06-02T09:45:35.870Z,25
2017-06-02T09:46:35.652Z,15
2017-06-02T09:47:35.373Z,25
2017-06-02T09:48:35.710Z,25
2017-06-02T09:49:35.739Z,25
2017-06-02T09:50:35.655Z,20
2017-06-02T09:51:35.492Z,25
2017-06-02T09:52:35.529Z,25
2017-06-02T09:53:35.862Z,25
2017-06-02T09:54:35.889Z,25
2017-06-02T09:55:35.859Z,25
2017-06-02T09:56:35.957Z,25
2017-06-02T09:57:35.362Z,25
2017-06-02T09:58:35.706Z,25
2017-06-02T09:59:36.056Z,25
2017-06-02T10:00:35.959Z,25
2017-06-02T10:01:36.113Z,20
2017-06-02T10:02:35.505Z,20
2017-06-02T10:03:36.169Z,20
2017-06-02T10:04:35.886Z,25
2017-06-02T10:05:36.476Z,30
2017-06-02T10:06:35.945Z,30
2017-06-02T10:07:36.289Z,30
2017-06-02T10:08:35.693Z,30
2017-06-02T10:09:35.718Z,30
2017-06-02T10:10:36.278Z,30
2017-06-02T10:11:36.105Z,30
2017-06-02T10:12:36.137Z,30
2017-06-02T10:13:36.166Z,30
2017-06-02T10:14:35.260Z,30
2017-06-02T10:15:36.484Z,35
2017-06-02T10:16:36.264Z,35
2017-06-02T10:17:36.282Z,35
2017-06-02T10:18:36.317Z,35
2017-06-02T10:19:36.039Z,40
2017-06-02T10:20:36.923Z,35
2017-06-02T10:21:36.409Z,35
2017-06-02T10:22:36.757Z,35
2017-06-02T10:23:36.474Z,40
2017-06-02T10:24:36.192Z,40
2017-06-02T10:25:35.964Z,40
2017-06-02T10:26:37.132Z,40
2017-06-02T10:27:35.657Z,40
2017-06-02T10:28:36.623Z,40
2017-06-02T10:29:36.650Z,40
2017-06-02T10:30:37.004Z,40
2017-06-02T10:31:37.280Z,40
2017-06-02T10:32:36.431Z,40
2017-06-02T10:33:37.095Z,35
2017-06-02T10:34:36.819Z,35
2017-06-02T10:35:36.859Z,35
2017-06-02T10:36:37.429Z,35
2017-06-02T10:37:36.594Z,35
2017-06-02T10:38:36.639Z,35
2017-06-02T10:39:36.965Z,35
2017-06-02T10:40:37.001Z,30
2017-06-02T10:41:37.272Z,40
2017-06-02T10:42:36.747Z,45
2017-06-02T10:43:37.095Z,50
2017-06-02T10:44:37.431Z,50
2017-06-02T10:45:37.461Z,50
2017-06-02T10:46:36.760Z,45
2017-06-02T10:47:37.525Z,45
2017-06-02T10:48:37.559Z,40
2017-06-02T10:49:37.279Z,35
2017-06-02T10:50:37.308Z,35
2017-06-02T10:51:37.909Z,35
2017-06-02T10:52:37.746Z,30
2017-06-02T10:53:37.714Z,35
2017-06-02T10:54:37.427Z,35
2017-06-02T10:55:37.837Z,35
2017-06-02T10:56:37.751Z,35
2017-06-02T10:57:37.215Z,30
2017-06-02T10:58:37.560Z,30
2017-06-02T10:59:37.896Z,30
2017-06-02T11:00:37.933Z,35
2017-06-02T11:01:38.169Z,45
2017-06-02T11:02:38.007Z,45
2017-06-02T11:03:38.027Z,45
2017-06-02T11:04:38.057Z,30
2017-06-02T11:05:37.452Z,35
2017-06-02T11:06:38.321Z,40
2017-06-02T11:07:38.147Z,40
2017-06-02T11:08:38.179Z,45
2017-06-02T11:09:38.220Z,45
2017-06-02T11:10:37.929Z,45
2017-06-02T11:11:38.525Z,50
2017-06-02T11:12:37.704Z,55
2017-06-02T11:13:38.335Z,55
2017-06-02T11:14:38.058Z,65
2017-06-02T11:15:37.516Z,75
2017-06-02T11:16:38.054Z,85
2017-06-02T11:17:38.458Z,85
2017-06-02T11:18:38.180Z,85
2017-06-02T11:19:38.519Z,90
2017-06-02T11:20:38.236Z,65
2017-06-02T11:21:38.470Z,60
2017-06-02T11:22:38.291Z,65
2017-06-02T11:23:38.635Z,80
2017-06-02T11:24:38.673Z,90
2017-06-02T11:25:38.077Z,95
2017-06-02T11:26:37.730Z,150
2017-06-02T11:27:38.450Z,320
2017-06-02T11:28:38.795Z,395
2017-06-02T11:29:38.204Z,395
2017-06-02T11:30:38.861Z,390
2017-06-02T11:31:39.151Z,340
2017-06-02T11:32:38.622Z,165
2017-06-02T11:33:38.335Z,180
2017-06-02T11:34:38.693Z,290
2017-06-02T11:35:39.032Z,570
2017-06-02T11:36:38.633Z,665
2017-06-02T11:37:38.776Z,380
2017-06-02T11:38:38.476Z,550
2017-06-02T11:39:38.833Z,805
2017-06-02T11:40:38.870Z,510
2017-06-02T11:41:39.463Z,610
2017-06-02T11:42:38.923Z,220
2017-06-02T11:43:39.276Z,650
2017-06-02T11:44:38.993Z,685
2017-06-02T11:45:39.021Z,715
2017-06-02T11:46:39.570Z,615
2017-06-02T11:47:39.095Z,645
2017-06-02T11:48:39.128Z,710
2017-06-02T11:49:39.157Z,635
2017-06-02T11:50:39.202Z,100
2017-06-02T11:51:39.178Z,40
2017-06-02T11:52:38.948Z,75
2017-06-02T11:53:39.291Z,525
2017-06-02T11:54:39.024Z,605
2017-06-02T11:55:39.105Z,575
2017-06-02T11:56:39.618Z,495
2017-06-02T11:57:39.732Z,485
2017-06-02T11:58:39.161Z,505
2017-06-02T11:59:39.188Z,85
2017-06-02T12:00:39.526Z,75
2017-06-02T12:01:39.801Z,85
2017-06-02T12:02:39.595Z,115
2017-06-02T12:03:39.628Z,75
2017-06-02T12:04:39.041Z,75
2017-06-02T12:05:40.010Z,120
2017-06-02T12:06:40.293Z,305
2017-06-02T12:07:39.455Z,440
2017-06-02T12:08:40.104Z,60
2017-06-02T12:09:40.135Z,55
2017-06-02T12:10:39.262Z,50
2017-06-02T12:11:40.465Z,50
2017-06-02T12:12:39.612Z,45
2017-06-02T12:13:40.273Z,45
2017-06-02T12:14:39.993Z,60
2017-06-02T12:15:39.730Z,180
2017-06-02T12:16:40.623Z,170
2017-06-02T12:17:40.416Z,95
2017-06-02T12:18:40.145Z,230
2017-06-02T12:19:40.483Z,405
2017-06-02T12:20:40.209Z,465
2017-06-02T12:21:40.734Z,145
2017-06-02T12:22:40.292Z,105
2017-06-02T12:23:40.617Z,110
2017-06-02T12:24:40.658Z,100
2017-06-02T12:25:40.370Z,60
2017-06-02T12:26:40.653Z,55
2017-06-02T12:27:40.436Z,50
2017-06-02T12:28:40.148Z,45
2017-06-02T12:29:40.498Z,45
2017-06-02T12:30:40.842Z,40
2017-06-02T12:31:40.825Z,35
2017-06-02T12:32:40.276Z,35
2017-06-02T12:33:40.315Z,30
2017-06-02T12:34:40.661Z,30
2017-06-02T12:35:40.698Z,25
2017-06-02T12:36:40.972Z,25
2017-06-02T12:37:40.761Z,25
2017-06-02T12:38:40.813Z,30
2017-06-02T12:39:40.825Z,30
2017-06-02T12:40:41.170Z,25
2017-06-02T12:41:40.575Z,25
2017-06-02T12:42:40.859Z,20
2017-06-02T12:43:40.960Z,20
2017-06-02T12:44:40.994Z,20
2017-06-02T12:45:40.690Z,20
2017-06-02T12:46:41.375Z,15
2017-06-02T12:47:41.627Z,15
2017-06-02T12:48:41.421Z,15
2017-06-02T12:49:41.454Z,15
2017-06-02T12:50:41.175Z,10
2017-06-02T12:51:41.517Z,10
2017-06-02T12:52:41.497Z,10
2017-06-02T12:53:41.577Z,10
2017-06-02T12:54:41.618Z,10
2017-06-02T12:55:41.347Z,10
2017-06-02T12:56:41.377Z,10
2017-06-02T12:57:41.911Z,10
2017-06-02T12:58:41.749Z,10
2017-06-02T12:59:41.777Z,10
2017-06-02T13:00:41.819Z,10
2017-06-02T13:01:41.531Z,10
2017-06-02T13:02:42.131Z,10
2017-06-02T13:03:41.900Z,5
2017-06-02T13:04:41.626Z,5
2017-06-02T13:05:41.970Z,5
2017-06-02T13:06:41.379Z,5
2017-06-02T13:07:41.968Z,0
2017-06-02T13:08:41.749Z,0
2017-06-02T13:09:42.106Z,0
2017-06-02T13:10:42.134Z,5
2017-06-02T13:11:42.160Z,5
2017-06-02T13:12:42.432Z,5
2017-06-02T13:13:41.585Z,5
2017-06-02T13:14:42.273Z,5
2017-06-02T13:15:42.287Z,5
2017-06-02T13:16:41.999Z,5
2017-06-02T13:17:41.981Z,5
2017-06-02T13:18:41.434Z,5
2017-06-02T13:19:42.406Z,5
2017-06-02T13:20:42.450Z,0
2017-06-02T13:21:42.162Z,0
2017-06-02T13:22:42.445Z,0
2017-06-02T13:23:41.910Z,0
2017-06-02T13:24:41.955Z,0
2017-06-02T13:25:42.294Z,0
2017-06-02T13:26:42.635Z,0
2017-06-02T13:27:42.241Z,0
2017-06-02T13:28:42.386Z,0
2017-06-02T13:29:42.723Z,0
2017-06-02T13:30:42.141Z,0
2017-06-02T13:31:42.792Z,0
2017-06-02T13:32:42.755Z,0
2017-06-02T13:33:42.857Z,0
2017-06-02T13:34:42.587Z,0
2017-06-02T13:35:42.291Z,0
2017-06-02T13:36:42.972Z,0
2017-06-02T13:37:42.914Z,0
2017-06-02T13:38:42.698Z,0
2017-06-02T13:39:43.042Z,0
2017-06-02T13:40:42.763Z,0
2017-06-02T13:41:43.108Z,0
2017-06-02T13:42:43.389Z,5
2017-06-02T13:43:43.182Z,5
2017-06-02T13:44:43.210Z,5
2017-06-02T13:45:42.632Z,5
2017-06-02T13:46:43.277Z,5
2017-06-02T13:47:42.892Z,5
2017-06-02T13:48:43.028Z,5
2017-06-02T13:49:43.059Z,5
2017-06-02T13:50:42.768Z,5
2017-06-02T13:51:43.112Z,5
2017-06-02T13:52:43.388Z,5
2017-06-02T13:53:43.178Z,5
2017-06-02T13:54:43.202Z,5
2017-06-02T13:55:43.233Z,10
2017-06-02T13:56:43.576Z,10
2017-06-02T13:57:43.862Z,10
2017-06-02T13:58:43.330Z,10
2017-06-02T13:59:43.659Z,10
2017-06-02T14:00:43.395Z,10
2017-06-02T14:01:43.424Z,15
2017-06-02T14:02:43.657Z,15
2017-06-02T14:03:43.827Z,15
2017-06-02T14:04:43.520Z,15
2017-06-02T14:05:43.549Z,15
2017-06-02T14:06:43.579Z,20
2017-06-02T14:07:43.862Z,20
2017-06-02T14:08:43.662Z,20
2017-06-02T14:09:43.996Z,25
2017-06-02T14:10:44.019Z,25
2017-06-02T14:11:44.057Z,25
2017-06-02T14:12:43.961Z,25
2017-06-02T14:13:43.799Z,25
2017-06-02T14:14:43.212Z,25
2017-06-02T14:15:43.235Z,25
2017-06-02T14:16:44.200Z,25
2017-06-02T14:17:43.794Z,20
2017-06-02T14:18:43.638Z,20
2017-06-02T14:19:43.988Z,25
2017-06-02T14:20:44.016Z,25
2017-06-02T14:21:44.045Z,25
2017-06-02T14:22:44.582Z,25
2017-06-02T14:23:44.418Z,30
2017-06-02T14:24:44.139Z,30
2017-06-02T14:25:44.181Z,35
2017-06-02T14:26:44.509Z,35
2017-06-02T14:27:44.799Z,35
2017-06-02T14:28:44.271Z,30
2017-06-02T14:29:44.611Z,30